createdAt,value
2017-12-17T00:01:40.993Z,58.00
2017-12-17T00:04:08.550Z,58.20
2017-12-17T00:06:36.070Z,58.60
2017-12-17T00:09:03.585Z,58.70
2017-12-17T00:11:31.124Z,58.50
2017-12-17T00:13:58.683Z,58.70
2017-12-17T00:16:26.230Z,58.90
2017-12-17T00:18:53.748Z,59.30
2017-12-17T00:21:22.036Z,58.60
2017-12-17T00:23:49.536Z,58.70
2017-12-17T00:26:17.056Z,58.20
2017-12-17T00:28:44.614Z,58.60
2017-12-17T00:31:12.136Z,58.50
2017-12-17T00:33:39.637Z,58.50
2017-12-17T00:36:07.136Z,58.30
2017-12-17T00:38:34.657Z,58.50
2017-12-17T00:41:03.009Z,58.60
2017-12-17T00:43:31.302Z,59.30
2017-12-17T00:45:58.796Z,59.00
2017-12-17T00:48:26.325Z,58.90
2017-12-17T00:50:54.617Z,59.40
2017-12-17T00:53:22.152Z,59.30
2017-12-17T00:55:49.661Z,58.80
2017-12-17T00:58:17.184Z,59.00
2017-12-17T01:00:44.963Z,59.40
2017-12-17T01:03:13.257Z,59.80
2017-12-17T01:05:41.530Z,60.10
2017-12-17T01:08:09.831Z,59.90
2017-12-17T01:10:38.113Z,60.60
2017-12-17T01:13:05.648Z,60.90
2017-12-17T01:15:34.289Z,61.50
2017-12-17T01:18:01.840Z,61.20
2017-12-17T01:20:30.126Z,60.80
2017-12-17T01:22:57.657Z,60.30
2017-12-17T01:25:25.570Z,59.90
2017-12-17T01:27:53.864Z,59.90
2017-12-17T01:30:22.862Z,59.50
2017-12-17T01:32:50.780Z,59.60
2017-12-17T01:35:19.057Z,59.40
2017-12-17T01:37:47.391Z,59.40
2017-12-17T01:40:15.673Z,59.20
2017-12-17T01:42:43.965Z,58.60
2017-12-17T01:45:12.249Z,58.70
2017-12-17T01:47:39.788Z,60.00
2017-12-17T01:50:07.689Z,58.50
2017-12-17T01:52:35.984Z,58.60
2017-12-17T01:55:04.255Z,58.40
2017-12-17T01:57:32.531Z,58.20
2017-12-17T02:00:00.889Z,58.40
2017-12-17T02:02:29.248Z,58.30
2017-12-17T02:04:57.516Z,58.30
2017-12-17T02:07:25.024Z,58.50
2017-12-17T02:09:52.561Z,58.30
2017-12-17T02:12:20.070Z,58.00
2017-12-17T02:14:48.357Z,58.70
2017-12-17T02:17:15.899Z,57.90
2017-12-17T02:19:44.194Z,58.40
2017-12-17T02:22:11.717Z,58.10
2017-12-17T02:24:39.256Z,58.50
2017-12-17T02:27:06.789Z,58.30
2017-12-17T02:29:34.330Z,58.50
2017-12-17T02:32:02.236Z,58.40
2017-12-17T02:34:29.779Z,58.50
2017-12-17T02:36:57.285Z,58.70
2017-12-17T02:39:25.472Z,58.90
2017-12-17T02:41:53.749Z,59.00
2017-12-17T02:44:21.284Z,58.20
2017-12-17T02:46:48.797Z,58.60
2017-12-17T02:49:16.336Z,59.00
2017-12-17T02:51:44.624Z,59.30
2017-12-17T02:54:12.154Z,58.30
2017-12-17T02:56:39.996Z,58.50
2017-12-17T02:59:07.532Z,58.20
2017-12-17T03:01:35.041Z,58.40
2017-12-17T03:04:02.559Z,58.60
2017-12-17T03:06:30.835Z,57.70
2017-12-17T03:08:58.374Z,58.00
2017-12-17T03:11:26.621Z,57.80
2017-12-17T03:13:54.900Z,58.00
2017-12-17T03:16:23.036Z,57.40
2017-12-17T03:18:51.313Z,57.70
2017-12-17T03:21:18.873Z,57.50
2017-12-17T03:23:46.381Z,57.60
2017-12-17T03:26:14.683Z,58.00
2017-12-17T03:28:42.202Z,57.50
2017-12-17T03:31:09.745Z,57.60
2017-12-17T03:33:37.268Z,57.30
2017-12-17T03:36:05.070Z,57.70
2017-12-17T03:38:32.572Z,57.20
2017-12-17T03:41:00.109Z,57.40
2017-12-17T03:43:27.611Z,57.30
2017-12-17T03:45:55.133Z,56.80
2017-12-17T03:48:23.814Z,56.80
2017-12-17T03:50:51.336Z,56.40
2017-12-17T03:53:18.854Z,56.50
2017-12-17T03:55:46.380Z,56.70
2017-12-17T03:58:13.876Z,56.80
2017-12-17T04:00:41.409Z,56.80
2017-12-17T04:03:08.939Z,56.60
2017-12-17T04:05:36.471Z,56.40
2017-12-17T04:08:03.986Z,57.10
2017-12-17T04:10:31.532Z,57.00
2017-12-17T04:12:59.437Z,56.80
2017-12-17T04:15:26.969Z,56.50
2017-12-17T04:17:54.471Z,56.80
2017-12-17T04:20:22.007Z,56.70
2017-12-17T04:22:50.286Z,57.50
2017-12-17T04:25:17.822Z,57.10
2017-12-17T04:27:45.729Z,56.70
2017-12-17T04:30:13.230Z,56.60
2017-12-17T04:32:40.755Z,56.00
2017-12-17T04:35:08.266Z,56.00
2017-12-17T04:37:36.192Z,56.30
2017-12-17T04:40:03.701Z,56.10
2017-12-17T04:42:31.235Z,55.80
2017-12-17T04:44:58.732Z,55.80
2017-12-17T04:47:26.254Z,55.70
2017-12-17T04:49:54.162Z,55.60
2017-12-17T04:52:22.077Z,55.60
2017-12-17T04:54:49.603Z,55.70
2017-12-17T04:57:17.126Z,55.40
2017-12-17T04:59:44.635Z,55.60
2017-12-17T05:02:12.172Z,55.60
2017-12-17T05:04:39.682Z,55.70
2017-12-17T05:07:07.218Z,55.50
2017-12-17T05:09:34.740Z,55.90
2017-12-17T05:12:02.260Z,55.50
2017-12-17T05:14:29.765Z,55.50
2017-12-17T05:16:57.306Z,55.90
2017-12-17T05:19:24.833Z,55.90
2017-12-17T05:21:52.373Z,55.90
2017-12-17T05:24:19.885Z,56.00
2017-12-17T05:26:47.926Z,55.50
2017-12-17T05:29:15.829Z,56.10
2017-12-17T05:31:43.366Z,56.30
2017-12-17T05:34:10.888Z,56.70
2017-12-17T05:36:38.418Z,56.70
2017-12-17T05:39:05.920Z,57.00
2017-12-17T05:41:34.356Z,57.00
2017-12-17T05:44:01.873Z,57.00
2017-12-17T05:46:30.150Z,57.30
2017-12-17T05:48:58.444Z,57.60
2017-12-17T05:51:25.979Z,57.70
2017-12-17T05:53:53.543Z,57.20
2017-12-17T05:56:21.526Z,56.80
2017-12-17T05:58:49.060Z,57.20
2017-12-17T06:01:16.572Z,57.30
2017-12-17T06:03:44.098Z,57.70
2017-12-17T06:06:11.611Z,57.50
2017-12-17T06:08:39.145Z,57.80
2017-12-17T06:11:06.921Z,57.40
2017-12-17T06:13:35.370Z,56.00
2017-12-17T06:16:02.876Z,57.30
2017-12-17T06:18:31.190Z,57.70
2017-12-17T06:20:58.714Z,56.90
2017-12-17T06:23:27.014Z,57.10
2017-12-17T06:25:54.515Z,56.60
2017-12-17T06:28:22.044Z,56.90
2017-12-17T06:30:49.555Z,56.30
2017-12-17T06:33:17.086Z,55.90
2017-12-17T06:35:45.718Z,56.20
2017-12-17T06:38:13.774Z,55.80
2017-12-17T06:40:41.309Z,55.80
2017-12-17T06:43:08.836Z,56.10
2017-12-17T06:45:36.346Z,56.00
2017-12-17T06:48:03.877Z,55.10
2017-12-17T06:50:31.377Z,55.40
2017-12-17T06:52:58.885Z,55.50
2017-12-17T06:55:26.421Z,55.20
2017-12-17T06:57:53.945Z,54.70
2017-12-17T07:00:21.477Z,54.80
2017-12-17T07:02:49.205Z,54.40
2017-12-17T07:05:16.760Z,54.60
2017-12-17T07:07:45.281Z,54.40
2017-12-17T07:10:13.224Z,54.80
2017-12-17T07:12:40.754Z,55.20
2017-12-17T07:15:08.276Z,55.40
2017-12-17T07:17:35.788Z,55.20
2017-12-17T07:20:04.101Z,54.80
2017-12-17T07:22:32.752Z,55.10
2017-12-17T07:25:00.273Z,54.30
2017-12-17T07:27:27.789Z,54.20
2017-12-17T07:29:55.357Z,53.70
2017-12-17T07:32:22.861Z,54.10
2017-12-17T07:34:50.584Z,55.20
2017-12-17T07:37:18.083Z,53.60
2017-12-17T07:39:45.609Z,53.60
2017-12-17T07:42:13.353Z,53.80
2017-12-17T07:44:40.873Z,53.40
2017-12-17T07:47:08.385Z,53.80
2017-12-17T07:49:35.917Z,53.40
2017-12-17T07:52:04.189Z,53.40
2017-12-17T07:54:31.726Z,53.10
2017-12-17T07:56:59.242Z,52.80
2017-12-17T07:59:26.770Z,52.90
2017-12-17T08:01:55.045Z,54.10
2017-12-17T08:04:23.329Z,53.70
2017-12-17T08:06:51.614Z,53.80
2017-12-17T08:09:19.126Z,53.40
2017-12-17T08:11:46.657Z,53.10
2017-12-17T08:14:14.161Z,53.30
2017-12-17T08:16:41.688Z,53.10
2017-12-17T08:19:09.197Z,53.20
2017-12-17T08:21:36.717Z,52.90
2017-12-17T08:24:04.276Z,53.00
2017-12-17T08:26:31.803Z,53.00
2017-12-17T08:28:59.326Z,52.60
2017-12-17T08:31:27.823Z,52.40
2017-12-17T08:33:56.104Z,52.80
2017-12-17T08:36:23.624Z,52.30
2017-12-17T08:38:51.716Z,52.50
2017-12-17T08:41:19.263Z,52.60
2017-12-17T08:43:47.181Z,52.60
2017-12-17T08:46:14.978Z,52.40
2017-12-17T08:48:43.256Z,51.90
2017-12-17T08:51:11.612Z,51.80
2017-12-17T08:53:39.843Z,51.50
2017-12-17T08:56:08.134Z,51.70
2017-12-17T08:58:36.406Z,51.90
2017-12-17T09:01:04.849Z,52.00
2017-12-17T09:03:33.136Z,51.70
2017-12-17T09:06:02.254Z,51.70
2017-12-17T09:08:29.766Z,51.70
2017-12-17T09:10:58.847Z,51.60
2017-12-17T09:13:26.697Z,51.30
2017-12-17T09:15:54.984Z,51.00
2017-12-17T09:18:23.273Z,51.40
2017-12-17T09:20:51.547Z,51.70
2017-12-17T09:23:20.704Z,51.80
2017-12-17T09:25:48.215Z,50.90
2017-12-17T09:28:16.502Z,51.20
2017-12-17T09:30:44.782Z,50.70
2017-12-17T09:33:12.370Z,50.70
2017-12-17T09:35:40.265Z,50.70
2017-12-17T09:38:08.556Z,49.60
2017-12-17T09:40:36.833Z,51.20
2017-12-17T09:43:05.122Z,51.30
2017-12-17T09:45:33.513Z,51.10
2017-12-17T09:48:01.821Z,51.20
2017-12-17T09:50:30.471Z,51.00
2017-12-17T09:52:58.816Z,50.60
2017-12-17T09:55:27.165Z,51.10
2017-12-17T09:57:55.456Z,50.80
2017-12-17T10:00:23.723Z,49.70
2017-12-17T10:02:52.770Z,49.60
2017-12-17T10:05:21.188Z,48.70
2017-12-17T10:07:48.721Z,48.40
2017-12-17T10:10:17.110Z,48.10
2017-12-17T10:12:45.428Z,48.50
2017-12-17T10:15:13.710Z,48.70
2017-12-17T10:17:42.013Z,48.80
2017-12-17T10:20:10.292Z,48.80
2017-12-17T10:22:38.587Z,48.40
2017-12-17T10:25:06.096Z,50.10
2017-12-17T10:27:34.026Z,49.40
2017-12-17T10:30:03.024Z,48.90
2017-12-17T10:32:30.557Z,48.30
2017-12-17T10:34:58.066Z,49.10
2017-12-17T10:37:25.973Z,48.80
2017-12-17T10:39:54.284Z,47.00
2017-12-17T10:42:22.571Z,46.70
2017-12-17T10:44:51.424Z,46.40
2017-12-17T10:47:19.730Z,46.30
2017-12-17T10:49:47.648Z,46.30
2017-12-17T10:52:15.945Z,46.50
2017-12-17T10:54:44.254Z,45.40
2017-12-17T10:57:12.540Z,45.40
2017-12-17T10:59:40.905Z,46.50
2017-12-17T11:02:09.918Z,46.30
2017-12-17T11:04:37.843Z,45.00
2017-12-17T11:07:06.867Z,46.00
2017-12-17T11:09:35.013Z,45.50
2017-12-17T11:12:05.772Z,42.50
2017-12-17T11:14:33.704Z,42.70
2017-12-17T11:17:01.980Z,41.60
2017-12-17T11:19:29.690Z,40.10
2017-12-17T11:21:57.742Z,40.60
2017-12-17T11:24:26.046Z,40.20
2017-12-17T11:26:54.966Z,41.50
2017-12-17T11:29:22.500Z,41.10
2017-12-17T11:31:50.807Z,42.40
2017-12-17T11:34:19.142Z,42.40
2017-12-17T11:36:47.407Z,42.50
2017-12-17T11:39:16.605Z,42.10
2017-12-17T11:41:45.568Z,42.60
2017-12-17T11:44:13.886Z,43.70
2017-12-17T11:46:42.179Z,44.30
2017-12-17T11:49:10.478Z,45.00
2017-12-17T11:51:38.000Z,44.10
2017-12-17T11:54:05.969Z,44.20
2017-12-17T11:56:34.280Z,44.80
2017-12-17T11:59:03.017Z,44.90
2017-12-17T12:01:30.937Z,44.70
2017-12-17T12:03:59.216Z,45.00
2017-12-17T12:06:27.596Z,46.00
2017-12-17T12:08:56.007Z,45.40
2017-12-17T12:11:24.303Z,45.30
2017-12-17T12:13:52.585Z,45.20
2017-12-17T12:16:21.659Z,45.90
2017-12-17T12:18:49.457Z,45.60
2017-12-17T12:21:17.803Z,45.60
2017-12-17T12:23:46.079Z,45.70
2017-12-17T12:26:14.436Z,45.30
2017-12-17T12:28:42.713Z,45.40
2017-12-17T12:31:11.022Z,45.30
2017-12-17T12:33:39.357Z,45.10
2017-12-17T12:36:07.656Z,44.80
2017-12-17T12:38:35.990Z,44.70
2017-12-17T12:41:04.356Z,44.60
2017-12-17T12:43:32.954Z,44.50
2017-12-17T12:46:01.249Z,44.90
2017-12-17T12:48:29.532Z,45.40
2017-12-17T12:50:57.852Z,45.70
2017-12-17T12:53:26.271Z,45.30
2017-12-17T12:55:55.365Z,45.00
2017-12-17T12:58:22.923Z,45.70
2017-12-17T13:00:51.216Z,45.80
2017-12-17T13:03:19.494Z,46.20
2017-12-17T13:05:47.781Z,46.00
2017-12-17T13:08:16.057Z,46.00
2017-12-17T13:10:44.398Z,45.50
2017-12-17T13:13:12.851Z,45.50
2017-12-17T13:15:41.160Z,45.50
2017-12-17T13:18:10.139Z,45.80
2017-12-17T13:20:38.124Z,46.00
2017-12-17T13:23:06.418Z,45.90
2017-12-17T13:25:34.715Z,46.10
2017-12-17T13:28:03.005Z,46.00
2017-12-17T13:30:31.336Z,45.80
2017-12-17T13:33:00.446Z,45.50
2017-12-17T13:35:27.957Z,45.60
2017-12-17T13:37:56.248Z,45.80
2017-12-17T13:40:25.462Z,46.30
2017-12-17T13:42:53.493Z,46.50
2017-12-17T13:45:21.430Z,46.20
2017-12-17T13:47:49.717Z,46.10
2017-12-17T13:50:17.989Z,45.70
2017-12-17T13:52:46.308Z,46.10
2017-12-17T13:55:14.844Z,46.30
2017-12-17T13:57:43.170Z,46.50
2017-12-17T14:00:11.436Z,46.20
2017-12-17T14:02:39.791Z,46.20
2017-12-17T14:05:08.113Z,46.30
2017-12-17T14:07:36.405Z,46.40
2017-12-17T14:10:05.120Z,46.30
2017-12-17T14:12:33.052Z,46.10
2017-12-17T14:15:01.487Z,46.10
2017-12-17T14:17:29.950Z,46.30
2017-12-17T14:19:58.282Z,46.60
2017-12-17T14:22:26.633Z,47.00
2017-12-17T14:24:54.912Z,46.70
2017-12-17T14:27:23.281Z,46.60
2017-12-17T14:29:51.610Z,46.90
2017-12-17T14:32:19.904Z,47.10
2017-12-17T14:34:48.182Z,46.90
2017-12-17T14:37:16.692Z,47.70
2017-12-17T14:39:45.058Z,48.10
2017-12-17T14:42:13.439Z,47.80
2017-12-17T14:44:41.777Z,48.00
2017-12-17T14:47:10.122Z,47.80
2017-12-17T14:49:39.244Z,47.50
2017-12-17T14:52:07.593Z,47.70
2017-12-17T14:54:36.369Z,48.10
2017-12-17T14:57:04.696Z,47.60
2017-12-17T14:59:32.988Z,47.60
2017-12-17T15:02:01.283Z,47.60
2017-12-17T15:04:29.635Z,47.50
2017-12-17T15:06:58.197Z,47.70
2017-12-17T15:09:26.503Z,47.70
2017-12-17T15:11:54.824Z,47.60
2017-12-17T15:14:23.480Z,47.80
2017-12-17T15:16:51.430Z,47.30
2017-12-17T15:19:19.731Z,47.70
2017-12-17T15:21:48.128Z,47.90
2017-12-17T15:24:16.434Z,48.10
2017-12-17T15:26:44.760Z,48.30
2017-12-17T15:29:13.609Z,48.10
2017-12-17T15:31:42.530Z,48.20
2017-12-17T15:34:10.071Z,48.20
2017-12-17T15:36:42.224Z,47.70
2017-12-17T15:39:11.599Z,48.20
2017-12-17T15:41:39.163Z,48.00
2017-12-17T15:44:07.944Z,47.70
2017-12-17T15:46:37.052Z,47.20
2017-12-17T15:49:05.360Z,47.50
2017-12-17T15:51:33.693Z,47.30
2017-12-17T15:54:02.043Z,47.20
2017-12-17T15:56:30.318Z,47.10
2017-12-17T15:58:58.618Z,47.90
2017-12-17T16:01:26.882Z,47.60
2017-12-17T16:03:54.419Z,47.50
2017-12-17T16:06:22.340Z,47.50
2017-12-17T16:08:50.680Z,47.60
2017-12-17T16:11:19.028Z,47.10
2017-12-17T16:13:47.356Z,47.40
2017-12-17T16:16:15.698Z,47.80
2017-12-17T16:18:44.032Z,47.60
2017-12-17T16:21:12.384Z,47.40
2017-12-17T16:23:40.747Z,47.80
2017-12-17T16:26:09.220Z,48.20
2017-12-17T16:28:37.569Z,48.20
2017-12-17T16:31:05.924Z,47.90
2017-12-17T16:33:34.257Z,48.30
2017-12-17T16:36:04.126Z,48.60
2017-12-17T16:38:33.854Z,48.40
2017-12-17T16:41:03.138Z,48.10
2017-12-17T16:43:31.470Z,48.50
2017-12-17T16:45:59.820Z,48.50
2017-12-17T16:48:28.142Z,48.60
2017-12-17T16:50:57.389Z,48.80
2017-12-17T16:53:24.926Z,48.40
2017-12-17T16:55:53.254Z,48.80
2017-12-17T16:58:21.619Z,49.70
2017-12-17T17:00:49.601Z,49.90
2017-12-17T17:03:17.496Z,50.10
2017-12-17T17:05:45.517Z,49.70
2017-12-17T17:08:13.867Z,49.60
2017-12-17T17:10:43.020Z,49.20
2017-12-17T17:13:10.604Z,49.10
2017-12-17T17:15:38.954Z,48.80
2017-12-17T17:18:09.022Z,48.70
2017-12-17T17:20:37.068Z,48.70
2017-12-17T17:23:05.455Z,48.60
2017-12-17T17:25:34.453Z,48.60
2017-12-17T17:28:03.860Z,49.20
2017-12-17T17:30:31.821Z,48.40
2017-12-17T17:33:00.226Z,48.90
2017-12-17T17:35:28.728Z,49.00
2017-12-17T17:37:56.711Z,48.80
2017-12-17T17:40:25.046Z,48.90
2017-12-17T17:42:53.392Z,48.90
2017-12-17T17:45:21.935Z,49.00
2017-12-17T17:47:50.551Z,48.90
2017-12-17T17:50:19.747Z,48.90
2017-12-17T17:52:47.342Z,50.90
2017-12-17T17:55:15.876Z,49.10
2017-12-17T17:57:44.646Z,49.20
2017-12-17T18:00:13.862Z,49.00
2017-12-17T18:02:41.423Z,49.20
2017-12-17T18:05:09.749Z,49.30
2017-12-17T18:07:38.296Z,49.40
2017-12-17T18:10:06.622Z,49.40
2017-12-17T18:12:35.606Z,49.50
2017-12-17T18:15:03.964Z,49.90
2017-12-17T18:17:32.656Z,49.50
2017-12-17T18:20:00.385Z,49.40
2017-12-17T18:22:28.299Z,49.30
2017-12-17T18:24:56.692Z,49.50
2017-12-17T18:27:25.685Z,49.50
2017-12-17T18:29:55.014Z,49.60
2017-12-17T18:32:23.656Z,49.70
2017-12-17T18:34:52.589Z,49.90
2017-12-17T18:37:20.991Z,50.00
2017-12-17T18:39:48.886Z,50.30
2017-12-17T18:42:16.433Z,50.20
2017-12-17T18:44:48.721Z,50.10
2017-12-17T18:47:17.148Z,50.50
2017-12-17T18:49:45.680Z,49.70
2017-12-17T18:52:14.006Z,49.80
2017-12-17T18:54:43.153Z,49.70
2017-12-17T18:57:11.575Z,49.60
2017-12-17T18:59:39.876Z,49.70
2017-12-17T19:02:07.431Z,49.60
2017-12-17T19:04:35.778Z,49.00
2017-12-17T19:07:04.096Z,48.80
2017-12-17T19:09:32.542Z,48.50
2017-12-17T19:12:00.871Z,48.20
2017-12-17T19:14:29.279Z,48.10
2017-12-17T19:16:57.630Z,48.10
2017-12-17T19:19:25.992Z,48.10
2017-12-17T19:21:54.328Z,48.40
2017-12-17T19:24:23.311Z,48.60
2017-12-17T19:26:51.790Z,48.70
2017-12-17T19:29:19.784Z,48.40
2017-12-17T19:31:47.755Z,48.50
2017-12-17T19:34:16.105Z,48.50
2017-12-17T19:36:44.430Z,48.00
2017-12-17T19:39:12.789Z,48.30
2017-12-17T19:41:41.975Z,48.40
2017-12-17T19:44:09.540Z,48.20
2017-12-17T19:46:37.898Z,48.40
2017-12-17T19:49:06.248Z,48.30
2017-12-17T19:51:34.600Z,48.30
2017-12-17T19:54:03.794Z,47.90
2017-12-17T19:56:31.893Z,47.90
2017-12-17T19:59:00.258Z,48.00
2017-12-17T20:01:28.456Z,48.60
2017-12-17T20:03:57.672Z,49.20
2017-12-17T20:06:26.828Z,47.60
2017-12-17T20:08:54.400Z,47.50
2017-12-17T20:11:22.765Z,48.00
2017-12-17T20:13:51.929Z,47.90
2017-12-17T20:16:19.514Z,47.80
2017-12-17T20:18:48.496Z,47.70
2017-12-17T20:21:16.498Z,47.90
2017-12-17T20:23:44.470Z,47.90
2017-12-17T20:26:13.735Z,47.50
2017-12-17T20:28:41.316Z,47.90
2017-12-17T20:31:10.143Z,48.30
2017-12-17T20:33:39.458Z,48.20
2017-12-17T20:36:10.027Z,47.90
2017-12-17T20:38:38.411Z,48.30
2017-12-17T20:41:06.006Z,48.40
2017-12-17T20:43:33.963Z,48.30
2017-12-17T20:46:02.304Z,48.20
2017-12-17T20:48:32.496Z,48.40
2017-12-17T20:51:00.952Z,48.70
2017-12-17T20:53:29.718Z,49.00
2017-12-17T20:55:57.304Z,49.40
2017-12-17T20:58:25.382Z,50.10
2017-12-17T21:00:53.743Z,50.10
2017-12-17T21:03:22.122Z,51.90
2017-12-17T21:05:50.477Z,50.20
2017-12-17T21:08:20.333Z,50.40
2017-12-17T21:10:49.353Z,51.00
2017-12-17T21:13:16.931Z,51.00
2017-12-17T21:15:45.263Z,50.50
2017-12-17T21:18:15.379Z,51.30
2017-12-17T21:20:44.444Z,51.60
2017-12-17T21:23:12.039Z,51.50
2017-12-17T21:25:39.998Z,51.40
2017-12-17T21:28:08.367Z,51.50
2017-12-17T21:30:37.240Z,52.30
2017-12-17T21:33:05.907Z,52.90
2017-12-17T21:35:33.485Z,52.90
2017-12-17T21:38:03.382Z,52.70
2017-12-17T21:40:31.398Z,52.80
2017-12-17T21:42:59.760Z,52.40
2017-12-17T21:45:28.948Z,52.50
2017-12-17T21:47:56.537Z,52.80
2017-12-17T21:50:24.877Z,52.60
2017-12-17T21:52:53.731Z,52.20
2017-12-17T21:55:21.413Z,52.00
2017-12-17T21:57:50.046Z,51.70
2017-12-17T22:00:18.009Z,51.90
2017-12-17T22:02:46.388Z,52.10
2017-12-17T22:05:14.754Z,52.20
2017-12-17T22:07:43.700Z,52.00
2017-12-17T22:10:11.292Z,51.90
2017-12-17T22:12:38.856Z,52.00
2017-12-17T22:15:06.863Z,51.90
2017-12-17T22:17:36.092Z,51.70
2017-12-17T22:20:03.674Z,52.10
2017-12-17T22:22:31.677Z,53.10
2017-12-17T22:25:00.110Z,53.00
2017-12-17T22:27:28.455Z,52.70
2017-12-17T22:29:56.802Z,53.20
2017-12-17T22:32:25.783Z,53.60
2017-12-17T22:34:54.139Z,53.40
2017-12-17T22:37:22.304Z,53.50
2017-12-17T22:39:51.087Z,53.50
2017-12-17T22:42:19.288Z,53.60
2017-12-17T22:44:47.672Z,54.00
2017-12-17T22:47:16.005Z,54.90
2017-12-17T22:49:44.483Z,55.10
2017-12-17T22:52:12.807Z,55.10
2017-12-17T22:54:41.880Z,54.10
2017-12-17T22:57:09.862Z,54.50
2017-12-17T22:59:38.200Z,54.80
2017-12-17T23:02:06.735Z,55.00
2017-12-17T23:04:35.090Z,55.20
2017-12-17T23:07:04.159Z,55.20
2017-12-17T23:09:32.566Z,55.40
2017-12-17T23:12:00.089Z,55.40
2017-12-17T23:14:28.388Z,55.30
2017-12-17T23:16:56.729Z,54.90
2017-12-17T23:19:25.174Z,54.50
2017-12-17T23:21:54.473Z,54.40
2017-12-17T23:24:22.947Z,54.40
2017-12-17T23:26:50.489Z,54.90
2017-12-17T23:29:18.393Z,54.60
2017-12-17T23:31:47.809Z,54.30
2017-12-17T23:34:17.703Z,54.80
2017-12-17T23:36:46.009Z,54.60
2017-12-17T23:39:14.301Z,54.50
2017-12-17T23:41:41.832Z,53.90
2017-12-17T23:44:09.746Z,53.50
2017-12-17T23:46:38.045Z,53.40
2017-12-17T23:49:07.170Z,53.40
2017-12-17T23:51:36.229Z,53.70
2017-12-17T23:54:04.501Z,53.70
2017-12-17T23:56:32.814Z,54.20
2017-12-17T23:59:01.086Z,53.40
